Time;durP1;ratioP1;P1;durP2;ratioP2;P2;SDS_P1;SDS_P2;PMS_P1;PMS_P2;Temp;Humidity;BMP_temperature;BMP_pressure;BME280_temperature;BME280_humidity;BME280_pressure;Samples;Min_cycle;Max_cycle;Signal;HPM_P1;HPM_P2
2023/07/15 00:01:21;;;;;;;49.00;46.50;;;;;;;;;;5017124;28;20460;-67
2023/07/15 00:03:47;;;;;;;43.80;41.53;;;;;;;;;;5016980;28;20045;-67
2023/07/15 00:06:14;;;;;;;57.80;54.83;;;;;;;;;;5018152;28;20033;-67
2023/07/15 00:08:40;;;;;;;33.47;31.67;;;;;;;;;;5018535;28;20025;-67
2023/07/15 00:11:06;;;;;;;39.20;37.15;;;;;;;;;;5017565;28;20391;-76
2023/07/15 00:13:31;;;;;;;35.80;33.90;;;;;;;;;;5017774;28;20525;-76
2023/07/15 00:15:57;;;;;;;42.05;39.83;;;;;;;;;;5020509;28;20033;-76
2023/07/15 00:18:23;;;;;;;28.92;27.33;;;;;;;;;;5022192;28;20116;-76
2023/07/15 00:20:49;;;;;;;25.58;24.20;;;;;;;;;;5022384;28;20472;-67
2023/07/15 00:23:25;;;;;;;27.50;25.30;;;;;;;;;;5021034;28;20435;-76
2023/07/15 00:25:51;;;;;;;22.70;21.45;;;;;;;;;;5023193;28;20048;-76
2023/07/15 00:28:18;;;;;;;22.83;21.33;;;;;;;;;;5020563;28;20025;-75
2023/07/15 00:30:44;;;;;;;23.88;22.58;;;;;;;;;;5017889;28;20044;-75
2023/07/15 00:33:14;;;;;;;20.25;19.08;;;;;;;;;;5018095;28;20245;-75
2023/07/15 00:35:40;;;;;;;28.45;26.98;;;;;;;;;;5018384;28;20114;-67
2023/07/15 00:38:06;;;;;;;19.38;18.33;;;;;;;;;;5015047;28;20042;-66
2023/07/15 00:40:37;;;;;;;18.55;17.50;;;;;;;;;;5018899;28;20109;-75
2023/07/15 00:43:40;;;;;;;19.85;18.73;;;;;;;;;;5019626;28;20431;-75
2023/07/15 00:46:17;;;;;;;15.70;14.80;;;;;;;;;;5018928;28;20041;-74
2023/07/15 00:48:54;;;;;;;14.40;13.57;;;;;;;;;;5016253;28;20052;-66
2023/07/15 00:51:21;;;;;;;13.90;13.10;;;;;;;;;;5018403;28;20039;-75
2023/07/15 00:53:48;;;;;;;12.95;12.20;;;;;;;;;;5015425;28;20029;-66
2023/07/15 00:56:13;;;;;;;15.68;14.77;;;;;;;;;;5018727;28;20030;-67
2023/07/15 00:58:39;;;;;;;19.30;18.25;;;;;;;;;;5015503;28;20060;-75
2023/07/15 01:01:06;;;;;;;20.17;18.95;;;;;;;;;;5016813;28;20037;-74
2023/07/15 01:03:32;;;;;;;20.65;19.35;;;;;;;;;;5022063;28;20037;-74
2023/07/15 01:05:57;;;;;;;18.88;17.85;;;;;;;;;;5015917;28;20468;-75
2023/07/15 01:08:23;;;;;;;22.70;21.48;;;;;;;;;;5015082;28;20359;-74
2023/07/15 01:10:48;;;;;;;20.90;19.70;;;;;;;;;;5017246;28;20471;-74
2023/07/15 01:13:14;;;;;;;20.02;18.92;;;;;;;;;;5017349;28;20033;-74
2023/07/15 01:15:39;;;;;;;21.95;20.67;;;;;;;;;;5017193;28;20147;-74
2023/07/15 01:18:05;;;;;;;22.10;20.73;;;;;;;;;;5018808;28;20148;-75
2023/07/15 01:20:32;;;;;;;21.80;20.52;;;;;;;;;;5015856;28;20131;-74
2023/07/15 01:22:57;;;;;;;23.48;22.20;;;;;;;;;;5017697;28;20040;-74
2023/07/15 01:25:23;;;;;;;21.17;20.00;;;;;;;;;;5018390;28;20037;-74
2023/07/15 01:27:48;;;;;;;19.05;18.00;;;;;;;;;;5018476;28;20033;-75
2023/07/15 01:30:15;;;;;;;20.33;19.17;;;;;;;;;;5014936;28;20359;-74
2023/07/15 01:32:40;;;;;;;20.48;19.35;;;;;;;;;;5017848;28;20423;-74
2023/07/15 01:35:06;;;;;;;20.63;19.48;;;;;;;;;;5018606;28;20084;-74
2023/07/15 01:37:31;;;;;;;19.95;18.85;;;;;;;;;;5018631;28;20033;-74
2023/07/15 01:39:56;;;;;;;19.70;18.60;;;;;;;;;;5016745;28;20101;-74
2023/07/15 01:42:22;;;;;;;17.95;16.95;;;;;;;;;;5018588;28;20057;-74
2023/07/15 01:44:47;;;;;;;17.52;16.33;;;;;;;;;;5016931;28;20029;-74
2023/07/15 01:47:12;;;;;;;17.02;15.82;;;;;;;;;;5016948;28;20149;-75
2023/07/15 01:49:38;;;;;;;16.00;15.07;;;;;;;;;;5019184;28;20127;-75
2023/07/15 01:52:04;;;;;;;15.48;14.57;;;;;;;;;;5017533;28;20041;-75
2023/07/15 01:54:29;;;;;;;16.92;15.93;;;;;;;;;;5018585;28;20022;-74
2023/07/15 01:56:55;;;;;;;17.15;16.20;;;;;;;;;;5018646;28;20025;-74
2023/07/15 01:59:20;;;;;;;18.88;17.77;;;;;;;;;;5016980;28;20034;-74
2023/07/15 02:01:45;;;;;;;19.50;18.40;;;;;;;;;;5017420;28;20466;-74
2023/07/15 02:04:11;;;;;;;19.65;18.55;;;;;;;;;;4973212;28;1243248;-66
2023/07/15 02:06:36;;;;;;;22.17;20.92;;;;;;;;;;5018707;28;20041;-74
2023/07/15 02:09:04;;;;;;;33.38;20.77;;;;;;;;;;5021315;28;20033;-74
2023/07/15 02:11:30;;;;;;;22.05;20.85;;;;;;;;;;5017338;28;20418;-74
2023/07/15 02:13:55;;;;;;;22.75;21.45;;;;;;;;;;5017137;28;20119;-74
2023/07/15 02:16:21;;;;;;;24.00;22.70;;;;;;;;;;5027244;28;20112;-74
2023/07/15 02:18:48;;;;;;;24.63;23.33;;;;;;;;;;5015880;28;20026;-74
2023/07/15 02:21:13;;;;;;;27.40;25.45;;;;;;;;;;5015903;28;20474;-74
2023/07/15 02:23:38;;;;;;;28.15;26.65;;;;;;;;;;5015207;28;20353;-74
2023/07/15 02:26:04;;;;;;;28.33;26.83;;;;;;;;;;5015704;28;20045;-74
2023/07/15 02:28:29;;;;;;;30.08;28.48;;;;;;;;;;5017059;28;20025;-74
2023/07/15 02:30:55;;;;;;;31.08;29.45;;;;;;;;;;5016305;28;20364;-66
2023/07/15 02:33:23;;;;;;;30.60;29.00;;;;;;;;;;5014567;28;20041;-74
2023/07/15 02:35:48;;;;;;;36.05;34.15;;;;;;;;;;5016805;28;20038;-73
2023/07/15 02:38:14;;;;;;;38.13;36.13;;;;;;;;;;5014801;28;20104;-74
2023/07/15 02:40:39;;;;;;;38.45;36.45;;;;;;;;;;5015436;28;20087;-74
2023/07/15 02:43:04;;;;;;;40.03;37.95;;;;;;;;;;5015976;28;20535;-74
2023/07/15 02:45:30;;;;;;;43.45;41.17;;;;;;;;;;5014117;28;20029;-66
2023/07/15 02:47:55;;;;;;;40.22;38.03;;;;;;;;;;5017754;28;20033;-67
2023/07/15 02:50:21;;;;;;;43.35;41.08;;;;;;;;;;5023670;28;20029;-66
2023/07/15 02:52:46;;;;;;;48.40;45.90;;;;;;;;;;5017794;28;20026;-66
2023/07/15 02:55:12;;;;;;;53.35;50.58;;;;;;;;;;5015142;28;20462;-66
2023/07/15 02:57:37;;;;;;;56.55;53.67;;;;;;;;;;5015214;28;20033;-66
2023/07/15 03:00:15;;;;;;;59.25;56.20;;;;;;;;;;5013918;28;20033;-66
2023/07/15 03:02:44;;;;;;;63.53;60.28;;;;;;;;;;5016575;28;20358;-67
2023/07/15 03:05:10;;;;;;;62.15;59.00;;;;;;;;;;5018539;28;20042;-67
2023/07/15 03:07:35;;;;;;;62.92;59.67;;;;;;;;;;5022429;28;20359;-66
2023/07/15 03:10:02;;;;;;;64.95;61.63;;;;;;;;;;5017954;28;20112;-66
2023/07/15 03:12:28;;;;;;;65.90;62.53;;;;;;;;;;5021120;28;20033;-75
2023/07/15 03:14:54;;;;;;;73.45;69.72;;;;;;;;;;5020805;28;20037;-73
2023/07/15 03:17:19;;;;;;;73.20;69.40;;;;;;;;;;5018302;28;20367;-73
2023/07/15 03:19:45;;;;;;;78.78;74.57;;;;;;;;;;5021950;28;20037;-67
2023/07/15 03:22:10;;;;;;;85.30;80.85;;;;;;;;;;5023241;28;20073;-67
2023/07/15 03:24:36;;;;;;;85.65;81.28;;;;;;;;;;5018959;28;20036;-67
2023/07/15 03:27:02;;;;;;;95.10;90.28;;;;;;;;;;5015352;28;20133;-67
2023/07/15 03:29:28;;;;;;;95.38;90.50;;;;;;;;;;5018276;28;20477;-66
2023/07/15 03:31:53;;;;;;;98.55;93.47;;;;;;;;;;5019871;28;20112;-73
2023/07/15 03:34:19;;;;;;;99.35;94.28;;;;;;;;;;5017194;28;20037;-73
2023/07/15 03:36:45;;;;;;;108.50;102.95;;;;;;;;;;5019249;28;20058;-73
2023/07/15 03:39:10;;;;;;;125.43;119.00;;;;;;;;;;5018112;28;20080;-73
2023/07/15 03:41:36;;;;;;;132.07;125.22;;;;;;;;;;5021592;28;20036;-72
2023/07/15 03:44:03;;;;;;;129.75;123.10;;;;;;;;;;5018549;28;20038;-72
2023/07/15 03:46:28;;;;;;;133.38;126.50;;;;;;;;;;5020452;28;20447;-72
2023/07/15 03:48:53;;;;;;;140.15;132.93;;;;;;;;;;5018289;28;20183;-67
2023/07/15 03:51:19;;;;;;;143.43;136.18;;;;;;;;;;5020019;28;20464;-72
2023/07/15 03:53:44;;;;;;;151.98;144.05;;;;;;;;;;5018664;28;20093;-72
2023/07/15 03:56:09;;;;;;;163.18;154.90;;;;;;;;;;5016718;28;20030;-72
2023/07/15 03:58:35;;;;;;;165.27;156.88;;;;;;;;;;5021874;28;20042;-72
2023/07/15 04:01:00;;;;;;;167.63;159.20;;;;;;;;;;5018244;28;20034;-72
2023/07/15 04:03:26;;;;;;;181.77;172.50;;;;;;;;;;5017376;28;20052;-72
2023/07/15 04:05:51;;;;;;;172.02;163.40;;;;;;;;;;5017758;28;20074;-72
2023/07/15 04:08:17;;;;;;;180.68;171.35;;;;;;;;;;5018110;28;20038;-74
2023/07/15 04:10:45;;;;;;;189.30;179.80;;;;;;;;;;5024750;28;20109;-73
2023/07/15 04:13:11;;;;;;;187.80;178.38;;;;;;;;;;5017617;28;20100;-74
2023/07/15 04:15:36;;;;;;;204.23;194.00;;;;;;;;;;5016841;28;20376;-73
2023/07/15 04:18:01;;;;;;;220.23;209.23;;;;;;;;;;5019814;28;20745;-67
2023/07/15 04:20:27;;;;;;;205.52;195.27;;;;;;;;;;5018585;28;20115;-67
2023/07/15 04:22:52;;;;;;;208.18;197.82;;;;;;;;;;5016100;28;20034;-67
2023/07/15 04:25:17;;;;;;;216.02;205.23;;;;;;;;;;5019131;28;20380;-67
2023/07/15 04:27:43;;;;;;;206.18;195.85;;;;;;;;;;5019562;28;20051;-66
2023/07/15 04:30:09;;;;;;;205.40;195.13;;;;;;;;;;5014556;28;20029;-67
2023/07/15 04:32:35;;;;;;;194.95;185.20;;;;;;;;;;5015930;28;20147;-67
2023/07/15 04:35:02;;;;;;;167.23;158.90;;;;;;;;;;5015246;28;20043;-67
2023/07/15 04:37:27;;;;;;;205.88;195.63;;;;;;;;;;5018576;28;20094;-66
2023/07/15 04:39:53;;;;;;;179.70;170.73;;;;;;;;;;5019645;28;20104;-66
2023/07/15 04:42:18;;;;;;;168.57;160.15;;;;;;;;;;5017339;28;20188;-67
2023/07/15 04:44:43;;;;;;;177.05;168.15;;;;;;;;;;5018448;28;20464;-67
2023/07/15 04:47:09;;;;;;;165.93;157.45;;;;;;;;;;5017736;28;20045;-73
2023/07/15 04:49:35;;;;;;;124.25;117.68;;;;;;;;;;5019695;28;20071;-74
2023/07/15 04:52:00;;;;;;;173.65;164.98;;;;;;;;;;5015070;28;20034;-74
2023/07/15 04:54:26;;;;;;;135.93;129.13;;;;;;;;;;5018717;28;20348;-72
2023/07/15 04:56:51;;;;;;;151.35;143.77;;;;;;;;;;5019339;28;20053;-73
2023/07/15 04:59:16;;;;;;;155.88;148.02;;;;;;;;;;5017667;28;20117;-74
2023/07/15 05:01:42;;;;;;;124.80;118.50;;;;;;;;;;5016092;28;20061;-74
2023/07/15 05:04:07;;;;;;;75.68;71.82;;;;;;;;;;5015693;28;20046;-73
2023/07/15 05:06:33;;;;;;;86.45;81.65;;;;;;;;;;5019051;28;20033;-66
2023/07/15 05:08:59;;;;;;;74.90;70.68;;;;;;;;;;5017293;28;20042;-66
2023/07/15 05:11:25;;;;;;;60.90;57.70;;;;;;;;;;5017858;28;20056;-66
2023/07/15 05:13:50;;;;;;;62.15;59.00;;;;;;;;;;5017238;28;20112;-73
2023/07/15 05:16:15;;;;;;;80.05;76.05;;;;;;;;;;5016215;28;20118;-73
2023/07/15 05:18:41;;;;;;;99.07;94.00;;;;;;;;;;5016344;28;20037;-66
2023/07/15 05:21:07;;;;;;;122.10;115.82;;;;;;;;;;5014133;28;20033;-66
2023/07/15 05:23:32;;;;;;;60.13;56.95;;;;;;;;;;5018039;28;20026;-66
2023/07/15 05:25:59;;;;;;;57.70;54.72;;;;;;;;;;5015256;28;20482;-73
2023/07/15 05:28:30;;;;;;;77.18;73.22;;;;;;;;;;5016521;28;20026;-73
2023/07/15 05:30:56;;;;;;;39.00;36.90;;;;;;;;;;5013450;28;20025;-74
2023/07/15 05:33:22;;;;;;;41.67;39.47;;;;;;;;;;5012645;28;20047;-66
2023/07/15 05:35:48;;;;;;;36.15;34.25;;;;;;;;;;5012931;28;20407;-66
2023/07/15 05:38:13;;;;;;;31.38;29.75;;;;;;;;;;5016191;28;20025;-66
2023/07/15 05:40:40;;;;;;;33.00;31.30;;;;;;;;;;5019950;28;20041;-67
2023/07/15 05:43:05;;;;;;;34.45;32.60;;;;;;;;;;5013067;28;20426;-66
2023/07/15 05:45:31;;;;;;;46.45;44.08;;;;;;;;;;5014868;28;20029;-73
2023/07/15 05:47:56;;;;;;;26.17;24.75;;;;;;;;;;5016932;28;20045;-73
2023/07/15 05:50:21;;;;;;;24.45;23.17;;;;;;;;;;5016701;28;20036;-73
2023/07/15 05:52:47;;;;;;;14.90;14.05;;;;;;;;;;5016202;28;20037;-67
2023/07/15 05:55:12;;;;;;;22.45;21.17;;;;;;;;;;5016308;28;20030;-67
2023/07/15 05:57:38;;;;;;;15.00;13.98;;;;;;;;;;5016983;28;20121;-73
2023/07/15 06:00:04;;;;;;;15.77;14.77;;;;;;;;;;5013702;28;20672;-74
2023/07/15 06:02:29;;;;;;;19.00;17.95;;;;;;;;;;5014995;28;20099;-74
2023/07/15 06:04:55;;;;;;;19.02;17.98;;;;;;;;;;5015483;28;20034;-68
2023/07/15 06:07:20;;;;;;;20.17;19.02;;;;;;;;;;5019426;28;20055;-68
2023/07/15 06:09:49;;;;;;;21.02;19.85;;;;;;;;;;5016156;28;20032;-68
2023/07/15 06:12:14;;;;;;;23.48;21.90;;;;;;;;;;5012806;28;20663;-68
2023/07/15 06:14:40;;;;;;;22.58;21.38;;;;;;;;;;5014413;28;20036;-68
2023/07/15 06:17:05;;;;;;;17.55;16.55;;;;;;;;;;5015820;28;20124;-67
2023/07/15 06:19:31;;;;;;;16.63;15.63;;;;;;;;;;5016102;28;20065;-68
2023/07/15 06:21:56;;;;;;;27.23;25.73;;;;;;;;;;5018932;28;20042;-67
2023/07/15 06:24:21;;;;;;;18.23;17.13;;;;;;;;;;5017793;28;20061;-75
2023/07/15 06:26:47;;;;;;;19.58;18.48;;;;;;;;;;5015985;28;20117;-74
2023/07/15 06:29:12;;;;;;;20.98;19.83;;;;;;;;;;5016420;28;20072;-74
2023/07/15 06:31:37;;;;;;;26.60;25.20;;;;;;;;;;5015675;28;20192;-74
2023/07/15 06:34:03;;;;;;;26.92;25.52;;;;;;;;;;5013865;28;20038;-74
2023/07/15 06:36:28;;;;;;;23.10;20.67;;;;;;;;;;5015564;28;20026;-74
2023/07/15 06:38:54;;;;;;;35.72;33.83;;;;;;;;;;5020013;28;20555;-73
2023/07/15 06:41:19;;;;;;;39.45;37.40;;;;;;;;;;5016681;28;20042;-74
2023/07/15 06:43:44;;;;;;;35.05;33.22;;;;;;;;;;5018900;28;20049;-75
2023/07/15 06:46:11;;;;;;;54.35;51.60;;;;;;;;;;5017989;28;20069;-74
2023/07/15 06:48:36;;;;;;;83.45;79.30;;;;;;;;;;5018826;28;20442;-74
2023/07/15 06:51:02;;;;;;;230.95;219.77;;;;;;;;;;5020900;28;20022;-74
2023/07/15 06:53:27;;;;;;;237.13;225.70;;;;;;;;;;5022920;28;20034;-74
2023/07/15 06:55:53;;;;;;;225.20;214.20;;;;;;;;;;5015385;28;20049;-74
2023/07/15 06:58:18;;;;;;;187.38;178.25;;;;;;;;;;5017133;28;20137;-74
2023/07/15 07:00:43;;;;;;;274.55;260.88;;;;;;;;;;5015389;28;20072;-74
2023/07/15 07:03:09;;;;;;;302.27;287.50;;;;;;;;;;5018761;28;20061;-74
2023/07/15 07:05:34;;;;;;;240.43;228.73;;;;;;;;;;5018066;28;20040;-75
2023/07/15 07:08:00;;;;;;;283.45;269.67;;;;;;;;;;5019593;28;20121;-73
2023/07/15 07:10:26;;;;;;;277.80;264.35;;;;;;;;;;5016429;28;20030;-73
2023/07/15 07:12:51;;;;;;;290.63;276.52;;;;;;;;;;5018364;28;20448;-73
2023/07/15 07:15:16;;;;;;;348.98;331.63;;;;;;;;;;5019372;28;20424;-73
2023/07/15 07:17:42;;;;;;;333.40;317.00;;;;;;;;;;5017402;28;20419;-74
2023/07/15 07:20:07;;;;;;;366.83;348.48;;;;;;;;;;5019908;28;20050;-74
2023/07/15 07:22:33;;;;;;;312.73;297.27;;;;;;;;;;5019162;28;20460;-68
2023/07/15 07:24:58;;;;;;;315.63;300.10;;;;;;;;;;5023055;28;20057;-69
2023/07/15 07:27:24;;;;;;;342.02;324.95;;;;;;;;;;5016995;28;20467;-69
2023/07/15 07:29:49;;;;;;;367.95;349.63;;;;;;;;;;5015944;28;20041;-68
2023/07/15 07:32:15;;;;;;;295.95;281.40;;;;;;;;;;5019302;28;20041;-74
2023/07/15 07:34:40;;;;;;;271.50;258.20;;;;;;;;;;5020005;28;20473;-74
2023/07/15 07:37:05;;;;;;;59.78;56.78;;;;;;;;;;5014201;28;20041;-74
2023/07/15 07:39:31;;;;;;;65.57;62.20;;;;;;;;;;5017020;28;20107;-73
2023/07/15 07:41:56;;;;;;;165.20;156.95;;;;;;;;;;5016399;28;20037;-74
2023/07/15 07:44:22;;;;;;;68.25;64.85;;;;;;;;;;5016770;28;21374;-74
2023/07/15 07:46:47;;;;;;;69.30;65.85;;;;;;;;;;5015877;28;20040;-73
2023/07/15 07:49:13;;;;;;;69.72;66.10;;;;;;;;;;5017349;28;20029;-74
2023/07/15 07:51:38;;;;;;;66.05;62.75;;;;;;;;;;5018796;28;20021;-74
2023/07/15 07:54:04;;;;;;;102.00;96.95;;;;;;;;;;5014217;28;20691;-73
2023/07/15 07:56:29;;;;;;;60.53;57.50;;;;;;;;;;5016521;28;20119;-72
2023/07/15 07:58:57;;;;;;;80.30;76.35;;;;;;;;;;5017923;28;20040;-73
2023/07/15 08:01:23;;;;;;;63.10;59.95;;;;;;;;;;5012536;28;20401;-74
2023/07/15 08:03:49;;;;;;;70.45;66.70;;;;;;;;;;5015308;28;20313;-73
2023/07/15 08:06:14;;;;;;;72.88;69.20;;;;;;;;;;5016086;28;20046;-73
2023/07/15 08:08:41;;;;;;;72.95;69.32;;;;;;;;;;5016640;28;20064;-72
2023/07/15 08:11:06;;;;;;;59.83;56.83;;;;;;;;;;5011426;28;20042;-74
2023/07/15 08:13:31;;;;;;;63.95;60.75;;;;;;;;;;5016760;28;20055;-73
2023/07/15 08:15:58;;;;;;;60.22;57.22;;;;;;;;;;5018102;28;20095;-73
2023/07/15 08:18:24;;;;;;;62.38;59.22;;;;;;;;;;5018020;28;20367;-73
2023/07/15 08:20:50;;;;;;;79.10;75.15;;;;;;;;;;5019735;28;20026;-73
2023/07/15 08:23:16;;;;;;;68.78;65.35;;;;;;;;;;5019266;28;20025;-73
2023/07/15 08:25:41;;;;;;;80.55;76.55;;;;;;;;;;5018446;28;20077;-74
2023/07/15 08:28:07;;;;;;;100.75;95.78;;;;;;;;;;5016322;28;20037;-74
2023/07/15 08:30:36;;;;;;;79.47;75.50;;;;;;;;;;5019224;28;20183;-74
2023/07/15 08:33:05;;;;;;;137.98;131.20;;;;;;;;;;5017363;28;20053;-73
2023/07/15 08:35:31;;;;;;;108.85;103.53;;;;;;;;;;5016878;28;20179;-72
2023/07/15 08:37:57;;;;;;;131.30;124.78;;;;;;;;;;5017089;28;20485;-73
2023/07/15 08:40:25;;;;;;;104.68;99.47;;;;;;;;;;5015592;28;20116;-73
2023/07/15 08:42:51;;;;;;;62.97;59.78;;;;;;;;;;5017280;28;20063;-72
2023/07/15 08:45:17;;;;;;;73.32;69.68;;;;;;;;;;5017369;28;20102;-72
2023/07/15 08:47:44;;;;;;;83.90;79.50;;;;;;;;;;5020784;28;20035;-72
2023/07/15 08:50:15;;;;;;;85.00;80.78;;;;;;;;;;5016439;28;20033;-73
2023/07/15 08:52:44;;;;;;;161.32;153.35;;;;;;;;;;5018760;28;20033;-73
2023/07/15 08:55:10;;;;;;;207.73;197.68;;;;;;;;;;5015283;28;20112;-74
2023/07/15 08:57:36;;;;;;;240.75;229.07;;;;;;;;;;5017593;28;20125;-72
2023/07/15 09:00:09;;;;;;;236.23;224.80;;;;;;;;;;5017158;28;20456;-73
2023/07/15 09:02:37;;;;;;;253.77;241.43;;;;;;;;;;5018377;28;20040;-72
2023/07/15 09:05:05;;;;;;;257.30;244.50;;;;;;;;;;5014836;28;20113;-74
2023/07/15 09:07:31;;;;;;;235.55;224.13;;;;;;;;;;5015976;28;20043;-73
2023/07/15 09:10:05;;;;;;;234.00;222.60;;;;;;;;;;5019940;28;20025;-69
2023/07/15 09:12:30;;;;;;;240.02;228.27;;;;;;;;;;5021962;28;20657;-68
2023/07/15 09:14:55;;;;;;;239.30;227.52;;;;;;;;;;5019674;28;20033;-68
2023/07/15 09:17:21;;;;;;;146.90;139.65;;;;;;;;;;5016159;28;20057;-74
2023/07/15 09:19:47;;;;;;;235.93;223.38;;;;;;;;;;5013995;28;20034;-74
2023/07/15 09:22:13;;;;;;;108.32;102.97;;;;;;;;;;5012870;28;20099;-68
2023/07/15 09:24:39;;;;;;;73.53;69.68;;;;;;;;;;5016842;28;20112;-68
2023/07/15 09:27:05;;;;;;;53.13;50.42;;;;;;;;;;5015982;28;20112;-68
2023/07/15 09:29:31;;;;;;;58.92;55.88;;;;;;;;;;5016666;28;20046;-68
2023/07/15 09:31:56;;;;;;;132.05;125.50;;;;;;;;;;5016099;28;20033;-74
2023/07/15 09:34:24;;;;;;;102.70;97.65;;;;;;;;;;5012941;28;20040;-73
2023/07/15 09:36:50;;;;;;;119.65;113.72;;;;;;;;;;5014701;28;20487;-67
2023/07/15 09:39:19;;;;;;;107.93;102.63;;;;;;;;;;5015482;28;20173;-73
2023/07/15 09:41:59;;;;;;;222.55;211.68;;;;;;;;;;5016292;28;20033;-73
2023/07/15 09:44:39;;;;;;;198.63;188.95;;;;;;;;;;5015349;28;20056;-73
2023/07/15 09:47:05;;;;;;;209.40;199.15;;;;;;;;;;5017489;28;20041;-68
2023/07/15 09:49:32;;;;;;;229.32;218.20;;;;;;;;;;5016681;28;20112;-68
2023/07/15 09:51:58;;;;;;;234.02;222.50;;;;;;;;;;5032606;28;20058;-68
2023/07/15 09:54:25;;;;;;;209.82;199.60;;;;;;;;;;5015766;28;20032;-73
2023/07/15 09:56:53;;;;;;;228.80;217.63;;;;;;;;;;5017839;28;20534;-73
2023/07/15 09:59:22;;;;;;;199.75;190.02;;;;;;;;;;5014102;28;20052;-73
2023/07/15 10:01:53;;;;;;;225.27;214.27;;;;;;;;;;5014298;28;20061;-72
2023/07/15 10:04:32;;;;;;;231.45;220.23;;;;;;;;;;5017581;28;20037;-68
2023/07/15 10:06:59;;;;;;;182.60;173.63;;;;;;;;;;5023095;28;20025;-72
2023/07/15 10:09:25;;;;;;;240.90;229.25;;;;;;;;;;5015347;28;20038;-73
2023/07/15 10:11:54;;;;;;;197.00;187.38;;;;;;;;;;5016688;28;20368;-73
2023/07/15 10:14:21;;;;;;;44.15;41.85;;;;;;;;;;5017912;28;20048;-73
2023/07/15 10:17:15;;;;;;;46.92;44.42;;;;;;;;;;5020284;28;20116;-73
2023/07/15 10:19:51;;;;;;;51.80;49.20;;;;;;;;;;5019876;28;20037;-73
2023/07/15 10:22:18;;;;;;;51.80;49.17;;;;;;;;;;5017978;28;20041;-74
2023/07/15 10:24:53;;;;;;;61.03;57.83;;;;;;;;;;5021485;28;20407;-73
2023/07/15 10:27:18;;;;;;;39.67;37.65;;;;;;;;;;5016452;28;20097;-74
2023/07/15 10:29:44;;;;;;;42.22;40.10;;;;;;;;;;5016015;28;20033;-69
2023/07/15 10:32:12;;;;;;;109.38;103.57;;;;;;;;;;5020474;28;20918;-74
2023/07/15 10:34:51;;;;;;;58.53;55.58;;;;;;;;;;5021751;28;20450;-74
2023/07/15 10:37:18;;;;;;;50.92;48.35;;;;;;;;;;5022144;28;20034;-69
2023/07/15 10:39:45;;;;;;;56.33;53.47;;;;;;;;;;5019409;28;20056;-68
2023/07/15 10:42:16;;;;;;;82.20;78.13;;;;;;;;;;5017867;28;20037;-69
2023/07/15 10:44:46;;;;;;;70.40;66.90;;;;;;;;;;5020050;28;20034;-68
2023/07/15 10:47:15;;;;;;;93.57;88.95;;;;;;;;;;5019005;28;20041;-74
2023/07/15 10:49:42;;;;;;;108.40;103.10;;;;;;;;;;5021021;28;20156;-74
2023/07/15 10:52:08;;;;;;;94.13;89.43;;;;;;;;;;5019477;28;20041;-74
2023/07/15 10:54:38;;;;;;;104.22;99.07;;;;;;;;;;5022278;28;20076;-74
2023/07/15 10:57:11;;;;;;;84.25;80.10;;;;;;;;;;5023271;28;20033;-69
2023/07/15 10:59:40;;;;;;;97.28;92.45;;;;;;;;;;5019888;28;20068;-68
2023/07/15 11:02:06;;;;;;;111.65;106.05;;;;;;;;;;5020212;28;20046;-73
2023/07/15 11:04:33;;;;;;;151.35;143.82;;;;;;;;;;5017831;28;21211;-73
2023/07/15 11:07:01;;;;;;;129.68;123.30;;;;;;;;;;5017573;28;20034;-68
2023/07/15 11:09:27;;;;;;;115.20;109.43;;;;;;;;;;5016970;28;20679;-68
2023/07/15 11:11:52;;;;;;;131.88;125.40;;;;;;;;;;5021931;28;20495;-74
2023/07/15 11:14:26;;;;;;;119.30;113.40;;;;;;;;;;5017151;28;20030;-68
2023/07/15 11:16:58;;;;;;;131.55;123.03;;;;;;;;;;5017785;28;20030;-68
2023/07/15 11:19:28;;;;;;;152.30;144.80;;;;;;;;;;5020303;28;20112;-68
2023/07/15 11:21:55;;;;;;;121.45;115.45;;;;;;;;;;5018641;28;20041;-73
2023/07/15 11:24:22;;;;;;;193.75;184.15;;;;;;;;;;5017981;28;20034;-74
2023/07/15 11:26:48;;;;;;;270.05;256.75;;;;;;;;;;5019107;28;20033;-74
2023/07/15 11:29:24;;;;;;;158.68;150.80;;;;;;;;;;5016661;28;20048;-74
2023/07/15 11:31:52;;;;;;;133.45;126.85;;;;;;;;;;5017499;28;20047;-74
2023/07/15 11:34:19;;;;;;;173.00;164.45;;;;;;;;;;5019223;28;20530;-74
2023/07/15 11:36:45;;;;;;;110.18;104.72;;;;;;;;;;5021293;28;20037;-74
2023/07/15 11:39:12;;;;;;;167.68;159.23;;;;;;;;;;5021941;28;20038;-74
2023/07/15 11:41:37;;;;;;;183.05;174.10;;;;;;;;;;5017923;28;20771;-74
2023/07/15 11:44:13;;;;;;;159.02;151.07;;;;;;;;;;5020632;28;20120;-74
2023/07/15 11:46:40;;;;;;;455.45;431.20;;;;;;;;;;5011949;28;20034;-68
2023/07/15 11:49:06;;;;;;;463.13;438.35;;;;;;;;;;5020660;28;20084;-68
2023/07/15 11:51:33;;;;;;;414.08;392.58;;;;;;;;;;5019600;28;20435;-67
2023/07/15 11:53:59;;;;;;;454.92;430.77;;;;;;;;;;5017705;28;20045;-68
2023/07/15 11:56:32;;;;;;;430.23;407.73;;;;;;;;;;5014367;28;20048;-68
2023/07/15 11:58:58;;;;;;;440.95;417.88;;;;;;;;;;5021646;28;20030;-74
2023/07/15 12:01:24;;;;;;;431.50;409.10;;;;;;;;;;5014605;28;21186;-68
2023/07/15 12:03:50;;;;;;;405.98;385.35;;;;;;;;;;5017424;28;20038;-68
2023/07/15 12:06:17;;;;;;;385.08;365.63;;;;;;;;;;5023895;28;20100;-67
2023/07/15 12:08:57;;;;;;;441.40;418.40;;;;;;;;;;5016588;28;20026;-67
2023/07/15 12:11:23;;;;;;;348.45;330.90;;;;;;;;;;5013692;28;20451;-66
2023/07/15 12:13:48;;;;;;;349.48;332.15;;;;;;;;;;5018155;28;20040;-67
2023/07/15 12:16:17;;;;;;;312.00;296.75;;;;;;;;;;5014974;28;20332;-67
2023/07/15 12:18:43;;;;;;;271.23;258.02;;;;;;;;;;5016234;28;20045;-68
2023/07/15 12:21:08;;;;;;;290.92;276.73;;;;;;;;;;5003188;28;20099;-68
2023/07/15 12:23:33;;;;;;;260.77;247.45;;;;;;;;;;5016752;28;20037;-68
2023/07/15 12:25:59;;;;;;;240.65;229.05;;;;;;;;;;5013122;28;20121;-67
2023/07/15 12:28:24;;;;;;;216.77;206.27;;;;;;;;;;5014673;28;20537;-67
2023/07/15 12:30:49;;;;;;;223.32;212.50;;;;;;;;;;5013930;28;20064;-67
2023/07/15 12:33:15;;;;;;;217.88;207.38;;;;;;;;;;5016890;28;20490;-73
2023/07/15 12:35:40;;;;;;;221.48;210.68;;;;;;;;;;5021229;28;20034;-68
2023/07/15 12:38:06;;;;;;;226.30;214.88;;;;;;;;;;5013738;28;20065;-73
2023/07/15 12:40:31;;;;;;;256.42;244.05;;;;;;;;;;5019412;28;20658;-73
2023/07/15 12:42:56;;;;;;;244.50;232.68;;;;;;;;;;5017930;28;20096;-74
2023/07/15 12:45:22;;;;;;;248.23;236.18;;;;;;;;;;5014430;28;20124;-75
2023/07/15 12:47:47;;;;;;;243.90;232.05;;;;;;;;;;5015259;28;20120;-73
2023/07/15 12:50:12;;;;;;;283.65;269.85;;;;;;;;;;5016920;28;20041;-75
2023/07/15 12:52:38;;;;;;;319.63;303.95;;;;;;;;;;5020673;28;20040;-70
2023/07/15 12:55:04;;;;;;;306.70;291.63;;;;;;;;;;5020159;28;20200;-74
2023/07/15 12:57:30;;;;;;;264.35;251.52;;;;;;;;;;5017786;28;20061;-73
2023/07/15 12:59:55;;;;;;;206.88;196.57;;;;;;;;;;5017373;28;20065;-75
2023/07/15 13:02:20;;;;;;;173.93;165.40;;;;;;;;;;5018047;28;20045;-73
2023/07/15 13:04:46;;;;;;;145.75;138.57;;;;;;;;;;5016717;28;20036;-69
2023/07/15 13:07:11;;;;;;;143.55;135.93;;;;;;;;;;5015128;28;20033;-69
2023/07/15 13:09:37;;;;;;;138.35;131.50;;;;;;;;;;5015636;28;20520;-69
2023/07/15 13:12:02;;;;;;;96.97;92.20;;;;;;;;;;5022357;28;20159;-74
2023/07/15 13:14:28;;;;;;;82.82;78.68;;;;;;;;;;5018290;28;20345;-72
2023/07/15 13:16:53;;;;;;;66.50;63.15;;;;;;;;;;5013518;28;20044;-67
2023/07/15 13:19:18;;;;;;;61.85;58.45;;;;;;;;;;5016608;28;20124;-68
2023/07/15 13:21:44;;;;;;;81.28;77.25;;;;;;;;;;5016540;28;20034;-67
2023/07/15 13:24:09;;;;;;;71.72;67.53;;;;;;;;;;5018232;28;20543;-68
2023/07/15 13:26:35;;;;;;;78.28;74.30;;;;;;;;;;5009011;28;20033;-73
2023/07/15 13:29:00;;;;;;;88.15;83.63;;;;;;;;;;5016280;28;20533;-69
2023/07/15 13:31:25;;;;;;;101.32;96.07;;;;;;;;;;5017584;28;20091;-64
2023/07/15 13:33:51;;;;;;;131.23;124.50;;;;;;;;;;5014760;28;20044;-64
2023/07/15 13:36:17;;;;;;;114.75;108.97;;;;;;;;;;5014182;28;20033;-64
2023/07/15 13:38:42;;;;;;;105.50;100.20;;;;;;;;;;5015761;28;20360;-65
2023/07/15 13:41:08;;;;;;;74.88;71.07;;;;;;;;;;5017389;28;20025;-64
2023/07/15 13:43:34;;;;;;;62.97;59.78;;;;;;;;;;5019136;28;20063;-65
2023/07/15 13:45:59;;;;;;;54.70;51.92;;;;;;;;;;5014311;28;20523;-65
2023/07/15 13:48:25;;;;;;;50.78;48.20;;;;;;;;;;5014066;28;20033;-65
2023/07/15 13:50:50;;;;;;;58.75;55.70;;;;;;;;;;5020145;28;20045;-65
2023/07/15 13:53:16;;;;;;;54.63;51.85;;;;;;;;;;5013648;28;20068;-68
2023/07/15 13:55:41;;;;;;;54.05;51.30;;;;;;;;;;5012606;28;20113;-69
2023/07/15 13:58:06;;;;;;;86.00;81.72;;;;;;;;;;5018635;28;20034;-68
2023/07/15 14:00:32;;;;;;;101.13;96.10;;;;;;;;;;5014605;28;20105;-66
2023/07/15 14:02:57;;;;;;;115.50;109.75;;;;;;;;;;5012367;28;20084;-65